Turks and Caicos Islands Weather

[source: ADDS]
METAR
MBPV 052200Z 0600/0700 09014KT 9999 SCT016 MBGT 051545Z 0518/0618 10014KT 9999 SCT018 TAF
MBPV 052200Z 0600/0700 09014KT 9999 SCT016 =
MBGT 051545Z 0518/0618 10014KT 9999 SCT018 =
SR / SS: 10:11 / 23:36 UTC (MBPV 2015-07-05)
E-mail Print PDF
Weather